createdAt,value
2018-08-10T00:01:10.863Z,22.217407
2018-08-10T00:02:26.748Z,22.187195
2018-08-10T00:03:42.631Z,22.207336
2018-08-10T00:04:58.565Z,22.227478
2018-08-10T00:06:14.454Z,22.187195
2018-08-10T00:07:30.456Z,22.177124
2018-08-10T00:08:46.376Z,22.066345
2018-08-10T00:10:02.232Z,22.116699
2018-08-10T00:11:18.121Z,22.116699
2018-08-10T00:12:34.098Z,22.156982
2018-08-10T00:13:49.976Z,22.116699
2018-08-10T00:15:06.968Z,22.136841
2018-08-10T00:16:23.854Z,22.156982
2018-08-10T00:17:39.741Z,22.136841
2018-08-10T00:18:55.631Z,22.036133
2018-08-10T00:20:11.526Z,22.026062
2018-08-10T00:21:27.532Z,21.965637
2018-08-10T00:22:43.455Z,21.885071
2018-08-10T00:23:59.323Z,21.854858
2018-08-10T00:25:15.210Z,21.905212
2018-08-10T00:26:31.071Z,21.834717
2018-08-10T00:27:46.975Z,21.814575
2018-08-10T00:29:02.867Z,21.854858
2018-08-10T00:30:18.741Z,21.804504
2018-08-10T00:31:34.623Z,21.854858
2018-08-10T00:32:50.509Z,21.804504
2018-08-10T00:34:06.584Z,21.784363
2018-08-10T00:35:22.474Z,21.814575
2018-08-10T00:36:38.378Z,21.885071
2018-08-10T00:37:54.291Z,21.834717
2018-08-10T00:39:10.175Z,21.774292
2018-08-10T00:40:26.072Z,21.814575
2018-08-10T00:41:41.925Z,21.854858
2018-08-10T00:42:57.797Z,21.915283
2018-08-10T00:44:13.647Z,21.905212
2018-08-10T00:45:29.547Z,21.774292
2018-08-10T00:46:45.426Z,21.723938
2018-08-10T00:48:01.334Z,21.74408
2018-08-10T00:49:17.216Z,21.784363
2018-08-10T00:50:33.110Z,21.834717
2018-08-10T00:51:49.035Z,21.804504
2018-08-10T00:53:04.911Z,21.784363
2018-08-10T00:54:20.865Z,21.74408
2018-08-10T00:55:36.772Z,21.723938
2018-08-10T00:56:52.625Z,21.774292
2018-08-10T00:59:49.196Z,21.663513
2018-08-10T01:01:05.095Z,21.653442
2018-08-10T01:02:20.969Z,21.562805
2018-08-10T01:03:36.854Z,21.582947
2018-08-10T01:04:52.712Z,21.593018
2018-08-10T01:06:08.595Z,21.532593
2018-08-10T01:07:24.479Z,21.452026
2018-08-10T01:08:40.363Z,21.472168
2018-08-10T01:09:56.227Z,21.582947
2018-08-10T01:11:12.163Z,21.593018
2018-08-10T01:12:28.081Z,21.532593
2018-08-10T01:13:43.959Z,21.532593
2018-08-10T01:14:59.841Z,21.472168
2018-08-10T01:16:15.696Z,21.512451
2018-08-10T01:17:31.605Z,21.512451
2018-08-10T01:18:47.515Z,21.542664
2018-08-10T01:20:03.442Z,21.482239
2018-08-10T01:21:19.353Z,21.452026
2018-08-10T01:22:35.338Z,21.452026
2018-08-10T01:23:51.255Z,21.431885
2018-08-10T01:25:07.137Z,21.411743
2018-08-10T01:26:23.031Z,21.260681
2018-08-10T01:27:38.996Z,21.37146
2018-08-10T01:28:55.052Z,21.331177
2018-08-10T01:30:11.796Z,21.411743
2018-08-10T01:31:27.720Z,21.441956
2018-08-10T01:32:44.663Z,21.50238
2018-08-10T01:34:00.561Z,21.37146
2018-08-10T01:35:16.579Z,21.300964
2018-08-10T01:36:32.441Z,21.300964
2018-08-10T01:37:48.312Z,21.300964
2018-08-10T01:39:04.563Z,21.351318
2018-08-10T01:40:20.748Z,21.37146
2018-08-10T01:41:36.628Z,21.331177
2018-08-10T01:42:52.489Z,21.431885
2018-08-10T01:44:08.406Z,21.411743
2018-08-10T01:45:24.315Z,21.472168
2018-08-10T01:46:40.351Z,21.542664
2018-08-10T01:47:56.237Z,21.62323
2018-08-10T01:49:12.120Z,21.562805
2018-08-10T01:50:28.048Z,21.482239
2018-08-10T01:51:43.976Z,21.431885
2018-08-10T01:52:59.860Z,21.331177
2018-08-10T01:54:15.773Z,21.351318
2018-08-10T01:55:31.679Z,21.25061
2018-08-10T01:56:47.554Z,21.321106
2018-08-10T01:58:03.418Z,21.280823
2018-08-10T01:59:19.368Z,21.190186
2018-08-10T02:00:35.237Z,21.039124
2018-08-10T02:01:51.220Z,21.099548
2018-08-10T02:03:07.072Z,21.260681
2018-08-10T02:04:23.003Z,21.331177
2018-08-10T02:05:38.964Z,21.431885
2018-08-10T02:06:54.823Z,21.431885
2018-08-10T02:08:10.680Z,21.331177
2018-08-10T02:09:26.543Z,21.37146
2018-08-10T02:10:42.407Z,21.431885
2018-08-10T02:11:58.288Z,21.331177
2018-08-10T02:13:14.214Z,21.170044
2018-08-10T02:14:30.091Z,21.069336
2018-08-10T02:15:45.951Z,21.008911
2018-08-10T02:17:01.852Z,21.029053
2018-08-10T02:18:17.701Z,21.220398
2018-08-10T02:19:33.635Z,21.200256
2018-08-10T02:20:49.557Z,21.079407
2018-08-10T02:22:05.442Z,21.039124
2018-08-10T02:23:22.288Z,20.827637
2018-08-10T02:24:38.341Z,20.777283
2018-08-10T02:25:54.131Z,20.847778
2018-08-10T02:27:10.030Z,20.666504
2018-08-10T02:28:26.045Z,20.636292
2018-08-10T02:29:41.895Z,20.525513
2018-08-10T02:30:57.880Z,20.344238
2018-08-10T02:32:13.761Z,20.293884
2018-08-10T02:33:29.632Z,20.303955
2018-08-10T02:34:45.520Z,20.293884
2018-08-10T02:36:01.403Z,20.152893
2018-08-10T02:37:17.273Z,20.122681
2018-08-10T02:38:33.183Z,20.142822
2018-08-10T02:39:49.031Z,20.24353
2018-08-10T02:41:04.900Z,20.142822
2018-08-10T02:42:20.798Z,20.122681
2018-08-10T02:43:36.650Z,20.001831
2018-08-10T02:44:52.531Z,20.072327
2018-08-10T02:46:08.407Z,20.082397
2018-08-10T02:47:24.277Z,19.961548
2018-08-10T02:48:40.157Z,19.99176
2018-08-10T02:49:56.031Z,20.042114
2018-08-10T02:51:11.899Z,20.021973
2018-08-10T02:52:27.872Z,20.11261
2018-08-10T02:53:43.795Z,20.082397
2018-08-10T02:54:59.700Z,20.142822
2018-08-10T02:56:15.555Z,20.082397
2018-08-10T02:57:31.449Z,19.99176
2018-08-10T02:58:47.336Z,19.941406
2018-08-10T03:00:03.225Z,19.770203
2018-08-10T03:01:19.080Z,19.598999
2018-08-10T03:02:34.997Z,19.568787
2018-08-10T03:03:50.903Z,19.619141
2018-08-10T03:05:06.791Z,19.629211
2018-08-10T03:06:22.700Z,19.377441
2018-08-10T03:07:38.597Z,19.468079
2018-08-10T03:08:54.447Z,19.548645
2018-08-10T03:10:10.312Z,19.598999
2018-08-10T03:11:26.189Z,19.387512
2018-08-10T03:12:42.078Z,19.387512
2018-08-10T03:13:57.997Z,19.367371
2018-08-10T03:15:14.080Z,19.417725
2018-08-10T03:16:29.953Z,19.528503
2018-08-10T03:17:45.830Z,19.548645
2018-08-10T03:19:01.686Z,19.417725
2018-08-10T03:20:17.559Z,19.337158
2018-08-10T03:21:33.407Z,19.478149
2018-08-10T03:22:49.315Z,19.407654
2018-08-10T03:24:05.161Z,19.377441
2018-08-10T03:25:21.063Z,19.407654
2018-08-10T03:26:36.942Z,19.367371
2018-08-10T03:27:52.814Z,19.317017
2018-08-10T03:29:08.678Z,19.317017
2018-08-10T03:30:24.589Z,19.437866
2018-08-10T03:31:40.433Z,19.478149
2018-08-10T03:32:56.331Z,19.558716
2018-08-10T03:34:12.179Z,19.468079
2018-08-10T03:35:28.043Z,19.468079
2018-08-10T03:36:43.917Z,19.48822
2018-08-10T03:37:59.840Z,19.528503
2018-08-10T03:39:15.729Z,19.377441
2018-08-10T03:40:31.620Z,19.478149
2018-08-10T03:41:47.482Z,19.337158
2018-08-10T03:43:03.370Z,19.216309
2018-08-10T03:47:15.774Z,19.286804
2018-08-10T03:48:31.650Z,19.256592
2018-08-10T03:49:47.600Z,19.085388
2018-08-10T03:51:03.420Z,19.014893
2018-08-10T03:52:19.329Z,18.964539
2018-08-10T03:53:35.231Z,18.924255
2018-08-10T03:54:51.172Z,18.914185
2018-08-10T03:56:07.063Z,18.793335
2018-08-10T03:57:22.938Z,18.783264
2018-08-10T03:58:38.855Z,18.551636
2018-08-10T03:59:54.748Z,18.410645
2018-08-10T04:01:10.612Z,18.390503
2018-08-10T04:02:26.608Z,18.420715
2018-08-10T04:03:42.632Z,18.430786
2018-08-10T04:04:58.599Z,18.460999
2018-08-10T04:06:14.501Z,18.491211
2018-08-10T04:07:30.483Z,18.511353
2018-08-10T04:08:46.544Z,18.420715
2018-08-10T04:10:02.514Z,18.279724
2018-08-10T04:11:18.464Z,18.279724
2018-08-10T04:12:35.446Z,18.118591
2018-08-10T04:13:52.370Z,18.048096
2018-08-10T04:15:08.289Z,18.078308
2018-08-10T04:16:24.204Z,18.017883
2018-08-10T04:17:40.072Z,18.078308
2018-08-10T04:18:55.974Z,18.128662
2018-08-10T04:20:11.875Z,17.997742
2018-08-10T04:21:27.760Z,18.058167
2018-08-10T04:22:43.734Z,18.158875
2018-08-10T04:23:59.600Z,18.309937
2018-08-10T04:25:15.557Z,18.269653
2018-08-10T04:26:31.432Z,18.189087
2018-08-10T04:27:47.333Z,18.279724
2018-08-10T04:29:03.173Z,18.340149
2018-08-10T04:30:19.064Z,18.430786
2018-08-10T04:31:34.960Z,18.239441
2018-08-10T04:32:50.846Z,18.299866
2018-08-10T04:34:06.746Z,18.420715
2018-08-10T04:35:22.673Z,18.420715
2018-08-10T04:36:38.549Z,18.410645
2018-08-10T04:37:54.419Z,18.370361
2018-08-10T04:39:10.346Z,18.420715
2018-08-10T04:40:26.228Z,18.450928
2018-08-10T04:41:42.087Z,18.511353
2018-08-10T04:42:58.000Z,18.491211
2018-08-10T04:44:13.882Z,18.420715
2018-08-10T04:45:29.807Z,18.430786
2018-08-10T04:46:45.703Z,18.511353
2018-08-10T04:48:01.603Z,18.511353
2018-08-10T04:49:17.457Z,18.48114
2018-08-10T04:50:33.338Z,18.521423
2018-08-10T04:51:49.304Z,18.551636
2018-08-10T04:53:05.203Z,18.511353
2018-08-10T04:54:21.091Z,18.360291
2018-08-10T04:55:36.973Z,18.430786
2018-08-10T04:56:52.841Z,18.450928
2018-08-10T04:58:08.732Z,18.370361
2018-08-10T04:59:24.671Z,18.330078
2018-08-10T05:00:40.563Z,18.279724
2018-08-10T05:01:56.436Z,18.450928
2018-08-10T05:03:12.470Z,18.521423
2018-08-10T05:04:28.369Z,18.521423
2018-08-10T05:05:44.269Z,18.531494
2018-08-10T05:07:00.154Z,18.924255
2018-08-10T05:08:16.829Z,18.571777
2018-08-10T05:09:32.773Z,18.672485
2018-08-10T05:10:48.758Z,18.702698
2018-08-10T05:12:04.657Z,18.551636
2018-08-10T05:13:20.563Z,18.642273
2018-08-10T05:14:36.434Z,18.863831
2018-08-10T05:15:52.405Z,18.460999
2018-08-10T05:17:08.199Z,18.259583
2018-08-10T05:18:24.290Z,18.511353
2018-08-10T05:21:19.820Z,18.390503
2018-08-10T05:22:35.696Z,18.531494
2018-08-10T05:23:51.581Z,18.460999
2018-08-10T05:25:07.526Z,18.521423
2018-08-10T05:26:23.495Z,18.048096
2018-08-10T05:27:39.399Z,18.088379
2018-08-10T05:28:55.335Z,18.058167
2018-08-10T05:30:11.202Z,18.148804
2018-08-10T05:31:27.112Z,18.259583
2018-08-10T05:32:43.016Z,18.299866
2018-08-10T05:33:59.021Z,18.370361
2018-08-10T05:35:14.941Z,18.48114
2018-08-10T05:36:30.847Z,18.370361
2018-08-10T05:37:46.789Z,18.299866
2018-08-10T05:39:02.680Z,18.309937
2018-08-10T05:40:18.547Z,18.360291
2018-08-10T05:41:34.454Z,18.22937
2018-08-10T05:42:50.381Z,18.22937
2018-08-10T05:44:06.314Z,18.299866
2018-08-10T05:45:22.197Z,18.330078
2018-08-10T05:46:38.106Z,18.269653
2018-08-10T05:47:54.096Z,18.48114
2018-08-10T05:49:09.909Z,18.460999
2018-08-10T05:50:25.831Z,18.390503
2018-08-10T05:51:41.656Z,18.189087
2018-08-10T05:52:57.586Z,18.22937
2018-08-10T05:54:13.516Z,18.108521
2018-08-10T05:55:29.401Z,18.279724
2018-08-10T05:56:45.294Z,18.420715
2018-08-10T05:58:01.215Z,18.460999
2018-08-10T05:59:17.106Z,18.581848
2018-08-10T06:00:33.012Z,18.511353
2018-08-10T06:01:48.921Z,18.410645
2018-08-10T06:03:04.801Z,18.48114
2018-08-10T06:04:20.676Z,18.531494
2018-08-10T06:05:36.573Z,18.521423
2018-08-10T06:06:52.492Z,18.279724
2018-08-10T06:08:08.403Z,18.491211
2018-08-10T06:09:24.275Z,18.60199
2018-08-10T06:10:40.149Z,18.330078
2018-08-10T06:11:56.013Z,18.330078
2018-08-10T06:13:12.056Z,18.22937
2018-08-10T06:14:27.897Z,18.239441
2018-08-10T06:15:43.765Z,18.158875
2018-08-10T06:16:59.650Z,18.189087
2018-08-10T06:18:15.569Z,18.360291
2018-08-10T06:19:31.630Z,18.299866
2018-08-10T06:20:48.460Z,18.390503
2018-08-10T06:22:04.308Z,18.571777
2018-08-10T06:23:20.236Z,18.632202
2018-08-10T06:24:36.185Z,18.60199
2018-08-10T06:25:52.071Z,18.632202
2018-08-10T06:27:08.066Z,18.682556
2018-08-10T06:28:24.018Z,18.672485
2018-08-10T06:29:39.895Z,18.682556
2018-08-10T06:30:56.769Z,18.823547
2018-08-10T06:32:12.716Z,18.742981
2018-08-10T06:33:28.619Z,18.682556
2018-08-10T06:34:44.641Z,18.521423
2018-08-10T06:36:00.531Z,18.60199
2018-08-10T06:37:16.386Z,18.702698
2018-08-10T06:38:32.269Z,18.581848
2018-08-10T06:39:48.195Z,18.682556
2018-08-10T06:41:04.063Z,18.632202
2018-08-10T06:42:19.918Z,18.763123
2018-08-10T06:43:35.927Z,18.551636
2018-08-10T06:44:51.856Z,18.511353
2018-08-10T06:46:07.682Z,18.460999
2018-08-10T06:47:23.567Z,18.511353
2018-08-10T06:48:39.488Z,18.581848
2018-08-10T06:49:55.368Z,18.48114
2018-08-10T06:51:11.352Z,18.672485
2018-08-10T06:52:27.135Z,18.672485
2018-08-10T06:53:43.048Z,18.581848
2018-08-10T06:54:58.969Z,18.662415
2018-08-10T06:56:15.074Z,18.581848
2018-08-10T06:57:30.893Z,18.360291
2018-08-10T06:58:47.775Z,18.491211
2018-08-10T07:00:03.645Z,18.632202
2018-08-10T07:01:19.517Z,18.682556
2018-08-10T07:02:35.388Z,18.783264
2018-08-10T07:03:51.271Z,18.702698
2018-08-10T07:05:07.139Z,18.612061
2018-08-10T07:06:23.118Z,18.813477
2018-08-10T07:07:39.196Z,18.702698
2018-08-10T07:08:54.905Z,18.793335
2018-08-10T07:10:10.793Z,18.964539
2018-08-10T07:11:26.645Z,18.883972
2018-08-10T07:12:42.508Z,18.894043
2018-08-10T07:13:58.553Z,18.974609
2018-08-10T07:15:14.433Z,18.98468
2018-08-10T07:16:30.309Z,19.10553
2018-08-10T07:17:46.189Z,19.266663
2018-08-10T07:19:02.093Z,19.437866
2018-08-10T07:20:17.957Z,19.367371
2018-08-10T07:21:33.846Z,19.437866
2018-08-10T07:22:49.757Z,19.296875
2018-08-10T07:24:06.730Z,19.286804
2018-08-10T07:25:22.582Z,19.286804
2018-08-10T07:26:38.522Z,19.165955
2018-08-10T07:27:54.465Z,19.155884
2018-08-10T07:29:10.359Z,19.23645
2018-08-10T07:30:26.245Z,19.256592
2018-08-10T07:31:42.142Z,19.266663
2018-08-10T07:32:58.048Z,19.256592
2018-08-10T07:34:13.947Z,19.226379
2018-08-10T07:35:29.879Z,19.115601
2018-08-10T07:36:45.830Z,18.974609
2018-08-10T07:38:01.731Z,18.894043
2018-08-10T07:39:17.948Z,19.004822
2018-08-10T07:40:34.039Z,19.085388
2018-08-10T07:41:50.116Z,19.065247
2018-08-10T07:43:06.218Z,19.045105
2018-08-10T07:44:22.360Z,19.085388
2018-08-10T07:45:38.618Z,18.833618
2018-08-10T07:46:54.552Z,18.823547
2018-08-10T07:48:10.643Z,18.914185
2018-08-10T07:49:26.801Z,19.065247
2018-08-10T07:50:43.086Z,19.155884
2018-08-10T07:51:59.224Z,19.165955
2018-08-10T07:53:15.324Z,19.004822
2018-08-10T07:54:31.369Z,18.702698
2018-08-10T07:55:47.318Z,18.974609
2018-08-10T07:57:03.249Z,19.115601
2018-08-10T07:58:19.137Z,19.23645
2018-08-10T07:59:35.014Z,19.377441
2018-08-10T08:00:51.950Z,19.417725
2018-08-10T08:02:07.841Z,19.478149
2018-08-10T08:03:24.044Z,19.558716
2018-08-10T08:04:40.415Z,19.709778
2018-08-10T08:07:37.138Z,19.719849
2018-08-10T08:08:53.284Z,19.780273
2018-08-10T08:10:09.581Z,19.699707
2018-08-10T08:11:25.565Z,19.639282
2018-08-10T08:12:41.700Z,19.699707
2018-08-10T08:13:57.892Z,19.750061
2018-08-10T08:15:13.807Z,19.770203
2018-08-10T08:16:30.232Z,19.850769
2018-08-10T08:17:46.404Z,19.921265
2018-08-10T08:19:02.620Z,20.001831
2018-08-10T08:20:18.629Z,20.032043
2018-08-10T08:21:34.653Z,20.082397
2018-08-10T08:22:50.632Z,20.032043
2018-08-10T08:24:07.007Z,20.042114
2018-08-10T08:25:23.213Z,19.921265
2018-08-10T08:26:39.345Z,20.001831
2018-08-10T08:27:55.637Z,19.99176
2018-08-10T08:29:11.915Z,19.931335
2018-08-10T08:30:27.866Z,19.961548
2018-08-10T08:31:43.774Z,19.931335
2018-08-10T08:32:59.607Z,19.931335
2018-08-10T08:34:15.520Z,19.961548
2018-08-10T08:35:32.423Z,20.001831
2018-08-10T08:36:48.374Z,19.971619
2018-08-10T08:38:04.253Z,19.850769
2018-08-10T08:39:20.123Z,19.699707
2018-08-10T08:40:36.024Z,19.73999
2018-08-10T08:41:51.911Z,19.780273
2018-08-10T08:43:07.845Z,19.699707
2018-08-10T08:44:23.737Z,19.528503
2018-08-10T08:45:39.876Z,19.659424
2018-08-10T08:46:55.511Z,19.558716
2018-08-10T08:48:11.363Z,19.548645
2018-08-10T08:49:27.237Z,19.719849
2018-08-10T08:50:43.174Z,19.931335
2018-08-10T08:51:59.060Z,20.021973
2018-08-10T08:53:14.975Z,20.152893
2018-08-10T08:54:30.892Z,20.102539
2018-08-10T08:55:46.838Z,20.142822
2018-08-10T08:57:02.724Z,20.082397
2018-08-10T08:58:18.632Z,20.122681
2018-08-10T08:59:34.508Z,20.36438
2018-08-10T09:00:50.377Z,20.444946
2018-08-10T09:02:07.401Z,20.455017
2018-08-10T09:03:23.284Z,20.485229
2018-08-10T09:04:39.210Z,20.525513
2018-08-10T09:05:55.071Z,20.475159
2018-08-10T09:07:10.980Z,20.404663
2018-08-10T09:08:26.934Z,20.475159
2018-08-10T09:09:42.838Z,20.777283
2018-08-10T09:10:58.713Z,20.898132
2018-08-10T09:12:14.610Z,20.898132
2018-08-10T09:13:30.694Z,20.978699
2018-08-10T09:14:46.601Z,20.737
2018-08-10T09:16:02.536Z,20.847778
2018-08-10T09:17:18.636Z,20.706787
2018-08-10T09:18:34.322Z,20.958557
2018-08-10T09:19:50.219Z,21.37146
2018-08-10T09:21:06.112Z,21.411743
2018-08-10T09:22:21.985Z,21.411743
2018-08-10T09:23:37.865Z,21.512451
2018-08-10T09:24:53.804Z,21.482239
2018-08-10T09:26:09.626Z,21.351318
2018-08-10T09:27:25.557Z,21.190186
2018-08-10T09:28:41.481Z,21.190186
2018-08-10T09:29:57.346Z,21.079407
2018-08-10T09:31:13.289Z,20.847778
2018-08-10T09:32:29.195Z,20.74707
2018-08-10T09:33:45.117Z,20.958557
2018-08-10T09:35:01.033Z,20.958557
2018-08-10T09:36:16.933Z,21.029053
2018-08-10T09:37:32.819Z,21.139832
2018-08-10T09:38:48.727Z,21.381531
2018-08-10T09:40:04.664Z,21.542664
2018-08-10T09:41:20.555Z,21.300964
2018-08-10T09:42:36.472Z,21.300964
2018-08-10T09:43:52.411Z,21.260681
2018-08-10T09:45:08.361Z,21.381531
2018-08-10T09:46:24.245Z,21.331177
2018-08-10T09:47:40.173Z,21.593018
2018-08-10T09:48:56.058Z,21.854858
2018-08-10T09:50:12.025Z,22.187195
2018-08-10T09:51:27.973Z,21.915283
2018-08-10T09:52:43.839Z,21.653442
2018-08-10T09:53:59.748Z,21.703796
2018-08-10T09:55:15.689Z,21.854858
2018-08-10T09:56:31.558Z,21.452026
2018-08-10T09:57:47.687Z,21.381531
2018-08-10T09:59:03.579Z,21.331177
2018-08-10T10:00:19.576Z,21.441956
2018-08-10T10:01:35.526Z,21.603088
2018-08-10T10:02:51.425Z,21.653442
2018-08-10T10:04:07.317Z,21.37146
2018-08-10T10:05:23.257Z,21.129761
2018-08-10T10:06:39.187Z,21.139832
2018-08-10T10:07:56.090Z,20.958557
2018-08-10T10:09:12.985Z,20.99884
2018-08-10T10:10:29.882Z,21.149902
2018-08-10T10:11:45.822Z,21.25061
2018-08-10T10:13:01.771Z,21.25061
2018-08-10T10:14:17.660Z,21.512451
2018-08-10T10:15:33.631Z,21.542664
2018-08-10T10:16:49.558Z,21.784363
2018-08-10T10:18:05.547Z,21.653442
2018-08-10T10:19:21.539Z,21.663513
2018-08-10T10:20:37.487Z,21.915283
2018-08-10T10:21:53.456Z,22.076416
2018-08-10T10:23:09.392Z,22.036133
2018-08-10T10:24:25.309Z,21.955566
2018-08-10T10:25:41.248Z,21.844788
2018-08-10T10:26:57.165Z,21.935425
2018-08-10T10:28:13.071Z,22.146912
2018-08-10T10:29:28.968Z,21.62323
2018-08-10T10:30:45.187Z,21.723938
2018-08-10T10:32:01.104Z,22.066345
2018-08-10T10:33:17.028Z,21.693726
2018-08-10T10:34:32.938Z,21.915283
2018-08-10T10:35:48.837Z,21.582947
2018-08-10T10:37:04.728Z,21.593018
2018-08-10T10:38:20.655Z,21.915283
2018-08-10T10:39:36.586Z,22.076416
2018-08-10T10:40:52.474Z,22.156982
2018-08-10T10:42:08.366Z,22.469177
2018-08-10T10:43:24.269Z,22.590027
2018-08-10T10:44:40.172Z,22.741089
2018-08-10T10:45:56.070Z,22.358398
2018-08-10T10:47:12.037Z,22.358398
2018-08-10T10:48:27.910Z,22.50946
2018-08-10T10:49:43.788Z,22.136841
2018-08-10T10:50:59.761Z,21.905212
2018-08-10T10:52:15.576Z,21.804504
2018-08-10T10:53:31.629Z,21.804504
2018-08-10T10:54:47.533Z,21.74408
2018-08-10T10:56:03.414Z,21.482239
2018-08-10T10:57:19.275Z,21.532593
2018-08-10T10:58:35.203Z,21.693726
2018-08-10T10:59:51.121Z,21.693726
2018-08-10T11:01:07.040Z,21.774292
2018-08-10T11:02:22.942Z,21.74408
2018-08-10T11:03:38.823Z,21.633301
2018-08-10T11:04:54.772Z,21.804504
2018-08-10T11:06:10.637Z,21.915283
2018-08-10T11:07:26.549Z,21.965637
2018-08-10T11:08:42.470Z,22.056274
2018-08-10T11:09:58.428Z,21.985779
2018-08-10T11:11:14.372Z,21.854858
2018-08-10T11:12:30.327Z,21.844788
2018-08-10T11:13:46.197Z,21.75415
2018-08-10T11:15:02.090Z,21.784363
2018-08-10T11:16:17.981Z,21.784363
2018-08-10T11:17:33.869Z,21.804504
2018-08-10T11:18:49.803Z,21.965637
2018-08-10T11:20:05.721Z,22.277832
2018-08-10T11:21:21.648Z,22.398682
2018-08-10T11:22:37.543Z,22.459106
2018-08-10T11:23:53.445Z,22.136841
2018-08-10T11:25:09.385Z,22.096558
2018-08-10T11:26:25.271Z,22.207336
2018-08-10T11:27:41.204Z,22.207336
2018-08-10T11:28:57.106Z,22.308044
2018-08-10T11:30:13.001Z,22.358398
2018-08-10T11:31:29.015Z,22.227478
2018-08-10T11:32:44.914Z,22.177124
2018-08-10T11:34:00.839Z,22.328186
2018-08-10T11:35:16.760Z,22.519531
2018-08-10T11:36:32.664Z,22.217407
2018-08-10T11:37:48.560Z,22.308044
2018-08-10T11:39:04.467Z,22.489319
2018-08-10T11:40:20.357Z,22.338257
2018-08-10T11:41:36.269Z,22.710876
2018-08-10T11:42:52.207Z,23.063354
2018-08-10T11:45:48.929Z,22.680664
2018-08-10T11:47:04.906Z,22.338257
2018-08-10T11:48:20.932Z,22.177124
2018-08-10T11:49:36.853Z,22.156982
2018-08-10T11:50:52.746Z,22.187195
2018-08-10T11:52:08.635Z,22.217407
2018-08-10T11:53:24.567Z,22.217407
2018-08-10T11:54:40.453Z,22.177124
2018-08-10T11:55:56.367Z,22.00592
2018-08-10T11:57:12.253Z,21.955566
2018-08-10T11:58:28.178Z,21.935425
2018-08-10T11:59:44.158Z,22.026062
2018-08-10T12:01:00.057Z,22.076416
2018-08-10T12:02:15.948Z,22.056274
2018-08-10T12:03:31.868Z,22.116699
2018-08-10T12:04:47.777Z,22.136841
2018-08-10T12:06:03.934Z,22.308044
2018-08-10T12:07:19.742Z,22.438965
2018-08-10T12:08:35.674Z,22.398682
2018-08-10T12:09:51.664Z,22.368469
2018-08-10T12:11:07.590Z,22.37854
2018-08-10T12:12:23.513Z,22.428894
2018-08-10T12:13:39.453Z,22.469177
2018-08-10T12:14:55.379Z,22.549744
2018-08-10T12:16:11.281Z,22.338257
2018-08-10T12:17:27.186Z,22.217407
2018-08-10T12:18:43.200Z,22.146912
2018-08-10T12:19:59.108Z,22.187195
2018-08-10T12:21:15.046Z,22.116699
2018-08-10T12:22:30.929Z,22.25769
2018-08-10T12:23:46.851Z,22.297974
2018-08-10T12:25:02.756Z,22.156982
2018-08-10T12:26:18.692Z,22.156982
2018-08-10T12:27:34.601Z,22.328186
2018-08-10T12:28:51.556Z,22.277832
2018-08-10T12:30:08.517Z,22.428894
2018-08-10T12:31:24.399Z,22.368469
2018-08-10T12:32:40.324Z,22.277832
2018-08-10T12:33:56.234Z,22.297974
2018-08-10T12:35:12.187Z,22.177124
2018-08-10T12:36:28.130Z,22.026062
2018-08-10T12:37:44.026Z,22.076416
2018-08-10T12:38:59.925Z,22.177124
2018-08-10T12:40:15.842Z,22.328186
2018-08-10T12:41:31.778Z,22.328186
2018-08-10T12:42:47.723Z,22.338257
2018-08-10T12:44:03.609Z,22.529602
2018-08-10T12:45:19.509Z,22.63031
2018-08-10T12:46:35.506Z,22.529602
2018-08-10T12:47:51.501Z,22.368469
2018-08-10T12:49:07.240Z,22.328186
2018-08-10T12:50:23.266Z,22.368469
2018-08-10T12:51:39.115Z,22.297974
2018-08-10T12:52:55.035Z,22.489319
2018-08-10T12:54:10.996Z,22.50946
2018-08-10T12:55:26.863Z,22.771301
2018-08-10T12:56:43.764Z,22.831726
2018-08-10T12:57:59.771Z,22.76123
2018-08-10T12:59:15.675Z,22.801514
2018-08-10T13:00:31.605Z,22.680664
2018-08-10T13:01:47.532Z,22.992859
2018-08-10T13:03:03.581Z,22.952576
2018-08-10T13:04:19.420Z,23.284912
2018-08-10T13:05:35.342Z,23.415833
2018-08-10T13:06:51.261Z,23.395691
2018-08-10T13:08:07.238Z,23.768311
2018-08-10T13:09:23.150Z,23.88916
2018-08-10T13:10:39.153Z,23.909302
2018-08-10T13:11:54.990Z,23.738098
2018-08-10T13:13:10.932Z,23.627319
2018-08-10T13:14:26.860Z,23.335266
2018-08-10T13:15:42.789Z,23.113708
2018-08-10T13:16:58.733Z,23.214417
2018-08-10T13:18:14.716Z,23.234558
2018-08-10T13:19:30.624Z,23.073425
2018-08-10T13:20:46.553Z,22.932434
2018-08-10T13:22:02.444Z,23.113708
2018-08-10T13:23:18.388Z,23.164062
2018-08-10T13:24:34.286Z,23.083496
2018-08-10T13:27:30.898Z,23.294983
2018-08-10T13:28:46.843Z,23.284912
2018-08-10T13:30:02.731Z,23.13385
2018-08-10T13:31:18.641Z,23.013
2018-08-10T13:32:34.618Z,23.325195
2018-08-10T13:33:50.577Z,23.355408
2018-08-10T13:35:06.652Z,23.2547
2018-08-10T13:36:22.571Z,23.264771
2018-08-10T13:37:38.532Z,23.143921
2018-08-10T13:38:54.439Z,23.174133
2018-08-10T13:40:10.351Z,23.083496
2018-08-10T13:41:26.340Z,23.103638
2018-08-10T13:42:42.332Z,23.2547
2018-08-10T13:43:58.246Z,23.284912
2018-08-10T13:45:14.199Z,23.355408
2018-08-10T13:46:30.155Z,23.556824
2018-08-10T13:47:46.166Z,23.38562
2018-08-10T13:49:02.055Z,23.617249
2018-08-10T13:50:18.029Z,23.808594
2018-08-10T13:51:33.947Z,23.435974
2018-08-10T13:52:49.923Z,23.355408
2018-08-10T13:54:05.838Z,23.184204
2018-08-10T13:55:21.763Z,23.234558
2018-08-10T13:56:37.742Z,23.476257
2018-08-10T13:57:53.697Z,23.657532
2018-08-10T13:59:09.654Z,23.466187
2018-08-10T14:00:25.617Z,23.546753
2018-08-10T14:01:41.550Z,23.38562
2018-08-10T14:02:57.482Z,23.284912
2018-08-10T14:04:13.536Z,23.184204
2018-08-10T14:05:29.494Z,23.083496
2018-08-10T14:06:45.463Z,23.113708
2018-08-10T14:08:01.480Z,23.113708
2018-08-10T14:09:17.418Z,22.982788
2018-08-10T14:10:33.370Z,23.164062
2018-08-10T14:11:49.368Z,23.355408
2018-08-10T14:13:05.317Z,23.174133
2018-08-10T14:14:21.323Z,23.13385
2018-08-10T14:15:37.268Z,23.13385
2018-08-10T14:16:53.241Z,23.113708
2018-08-10T14:18:09.174Z,23.043213
2018-08-10T14:19:25.098Z,22.801514
2018-08-10T14:20:41.032Z,22.922363
2018-08-10T14:21:56.993Z,23.073425
2018-08-10T14:23:12.985Z,23.113708
2018-08-10T14:24:28.939Z,23.083496
2018-08-10T14:25:44.981Z,23.164062
2018-08-10T14:27:00.966Z,23.143921
2018-08-10T14:28:16.948Z,23.073425
2018-08-10T14:29:32.974Z,23.184204
2018-08-10T14:30:48.897Z,22.962646
2018-08-10T14:32:04.865Z,23.073425
2018-08-10T14:33:20.928Z,23.103638
2018-08-10T14:34:36.884Z,23.103638
2018-08-10T14:35:52.823Z,23.073425
2018-08-10T14:37:08.771Z,22.892151
2018-08-10T14:38:24.730Z,22.912292
2018-08-10T14:39:40.718Z,22.992859
2018-08-10T14:40:56.641Z,23.164062